Time;durP1;ratioP1;P1;durP2;ratioP2;P2;SDS_P1;SDS_P2;PMS_P1;PMS_P2;Temp;Humidity;BMP_temperature;BMP_pressure;BME280_temperature;BME280_humidity;BME280_pressure;Samples;Min_cycle;Max_cycle;Signal;HPM_P1;HPM_P2
2022/10/04 00:00:32;;;;;;;;;;;18.70;67.00;;;;;;5032652;27;90390;-55
2022/10/04 00:03:08;;;;;;;;;;;18.70;67.00;;;;;;5004334;27;93560;-54
2022/10/04 00:05:33;;;;;;;;;;;18.70;67.10;;;;;;5025764;27;93493;-54
2022/10/04 00:08:03;;;;;;;;;;;18.70;67.00;;;;;;5026503;27;89698;-48
2022/10/04 00:10:30;;;;;;;;;;;18.70;67.00;;;;;;5028499;27;89624;-50
2022/10/04 00:12:57;;;;;;;;;;;18.70;67.10;;;;;;5028578;27;91048;-52
2022/10/04 00:15:26;;;;;;;;;;;18.70;67.10;;;;;;5025205;27;92297;-52
2022/10/04 00:18:06;;;;;;;;;;;18.70;67.10;;;;;;5019733;27;90618;-49
2022/10/04 00:20:47;;;;;;;;;;;18.70;67.00;;;;;;5032783;27;89884;-53
2022/10/04 00:23:33;;;;;;;;;;;18.70;66.80;;;;;;5031260;27;90751;-52
2022/10/04 00:26:08;;;;;;;;;;;18.70;66.90;;;;;;5020523;27;90260;-51
2022/10/04 00:28:34;;;;;;;;;;;18.70;67.10;;;;;;5028314;27;89916;-52
2022/10/04 00:31:06;;;;;;;;;;;18.60;67.10;;;;;;5017208;27;89913;-51
2022/10/04 00:33:39;;;;;;;;;;;18.60;67.10;;;;;;5020818;27;90806;-52
2022/10/04 00:36:22;;;;;;;;;;;18.60;67.10;;;;;;5031379;27;90464;-53
2022/10/04 00:39:05;;;;;;;;;;;18.70;67.00;;;;;;5023540;27;90933;-54
2022/10/04 00:41:37;;;;;;;;;;;18.70;67.00;;;;;;5036265;27;92331;-52
2022/10/04 00:44:04;;;;;;;;;;;18.70;67.00;;;;;;5016991;27;92722;-52
2022/10/04 00:46:30;;;;;;;;;;;18.70;66.80;;;;;;5029658;27;90571;-52
2022/10/04 00:49:04;;;;;;;;;;;18.70;66.60;;;;;;5024545;27;90158;-51
2022/10/04 00:51:37;;;;;;;;;;;18.70;66.80;;;;;;5029432;27;89909;-51
2022/10/04 00:54:02;;;;;;;;;;;18.50;67.10;;;;;;5026584;27;89715;-51
2022/10/04 00:56:34;;;;;;;;;;;18.60;67.00;;;;;;5033171;27;90467;-51
2022/10/04 00:59:02;;;;;;;;;;;18.50;67.00;;;;;;5028347;27;89753;-52
2022/10/04 01:01:30;;;;;;;;;;;18.50;67.10;;;;;;5032671;27;89820;-53
2022/10/04 01:03:57;;;;;;;;;;;18.50;67.10;;;;;;5019760;27;89923;-51
2022/10/04 01:06:22;;;;;;;;;;;18.50;67.10;;;;;;5028488;27;90400;-51
2022/10/04 01:08:50;;;;;;;;;;;18.50;67.10;;;;;;5013392;27;92732;-53
2022/10/04 01:11:18;;;;;;;;;;;18.50;67.00;;;;;;5030284;27;90661;-53
2022/10/04 01:14:03;;;;;;;;;;;18.50;67.00;;;;;;5023325;27;96586;-52
2022/10/04 01:16:32;;;;;;;;;;;18.50;67.00;;;;;;5017483;27;89963;-51
2022/10/04 01:19:16;;;;;;;;;;;18.50;67.00;;;;;;5019416;27;89909;-52
2022/10/04 01:21:42;;;;;;;;;;;18.40;67.10;;;;;;5029730;27;89901;-53
2022/10/04 01:24:07;;;;;;;;;;;18.40;67.20;;;;;;5022885;27;91239;-52
2022/10/04 01:26:35;;;;;;;;;;;18.40;67.30;;;;;;5023323;27;93236;-51
2022/10/04 01:29:12;;;;;;;;;;;18.40;67.30;;;;;;5020922;27;90453;-52
2022/10/04 01:31:40;;;;;;;;;;;18.30;67.40;;;;;;5015676;27;90615;-53
2022/10/04 01:34:06;;;;;;;;;;;18.40;67.60;;;;;;5027617;27;91295;-54
2022/10/04 01:36:32;;;;;;;;;;;18.30;67.60;;;;;;5023048;27;90214;-53
2022/10/04 01:38:58;;;;;;;;;;;18.30;67.40;;;;;;5017756;27;93314;-51
2022/10/04 01:41:28;;;;;;;;;;;18.30;67.40;;;;;;5021529;27;90497;-52
2022/10/04 01:43:57;;;;;;;;;;;18.30;67.40;;;;;;5021703;27;89654;-53
2022/10/04 01:46:25;;;;;;;;;;;18.30;67.50;;;;;;5013896;27;90069;-53
2022/10/04 01:48:51;;;;;;;;;;;18.30;67.60;;;;;;5015636;27;89610;-53
2022/10/04 01:51:18;;;;;;;;;;;18.30;67.50;;;;;;5028710;27;89319;-53
2022/10/04 01:53:46;;;;;;;;;;;18.30;67.50;;;;;;5020650;27;90159;-51
2022/10/04 01:56:14;;;;;;;;;;;18.30;67.40;;;;;;5020635;27;89796;-51
2022/10/04 01:59:12;;;;;;;;;;;18.20;67.60;;;;;;5015831;27;90997;-49
2022/10/04 02:01:53;;;;;;;;;;;18.20;67.80;;;;;;4971133;27;92078;-48
2022/10/04 02:04:26;;;;;;;;;;;18.20;67.60;;;;;;5021666;27;93708;-52
2022/10/04 02:06:53;;;;;;;;;;;18.10;67.80;;;;;;5027353;27;94563;-50
2022/10/04 02:09:23;;;;;;;;;;;18.20;67.90;;;;;;5024273;27;90049;-51
2022/10/04 02:11:52;;;;;;;;;;;18.20;67.80;;;;;;5020575;27;90272;-50
2022/10/04 02:14:20;;;;;;;;;;;18.10;67.90;;;;;;5020835;27;91310;-54
2022/10/04 02:16:48;;;;;;;;;;;18.10;67.80;;;;;;5026929;27;89056;-52
2022/10/04 02:19:14;;;;;;;;;;;18.10;67.80;;;;;;5016364;27;91214;-48
2022/10/04 02:21:40;;;;;;;;;;;18.00;68.00;;;;;;5023626;27;91565;-52
2022/10/04 02:24:07;;;;;;;;;;;18.00;68.20;;;;;;5016782;27;91692;-51
2022/10/04 02:26:32;;;;;;;;;;;18.00;68.10;;;;;;5025720;27;92379;-52
2022/10/04 02:28:58;;;;;;;;;;;18.00;68.10;;;;;;5034841;27;89516;-52
2022/10/04 02:34:09;;;;;;;;;;;17.90;68.40;;;;;;5025938;27;90066;-53
2022/10/04 02:36:35;;;;;;;;;;;17.90;68.40;;;;;;5022072;27;90898;-53
2022/10/04 02:39:06;;;;;;;;;;;17.90;68.50;;;;;;5018680;27;89585;-54
2022/10/04 02:41:38;;;;;;;;;;;17.90;68.30;;;;;;5026221;27;89437;-51
2022/10/04 02:44:09;;;;;;;;;;;18.00;68.10;;;;;;5030801;27;90601;-53
2022/10/04 02:46:41;;;;;;;;;;;18.00;68.10;;;;;;5024645;27;89938;-52
2022/10/04 02:49:15;;;;;;;;;;;18.00;68.00;;;;;;5030670;27;91388;-52
2022/10/04 02:51:53;;;;;;;;;;;17.80;68.50;;;;;;5014303;27;90056;-52
2022/10/04 02:54:41;;;;;;;;;;;17.90;68.50;;;;;;5020998;27;90166;-49
2022/10/04 02:57:18;;;;;;;;;;;17.80;68.60;;;;;;5026531;27;90512;-52
2022/10/04 02:59:43;;;;;;;;;;;17.90;68.50;;;;;;5022811;27;90085;-51
2022/10/04 03:02:21;;;;;;;;;;;17.80;68.50;;;;;;5028734;27;90936;-52
2022/10/04 03:04:47;;;;;;;;;;;17.90;68.30;;;;;;5022838;27;92471;-50
2022/10/04 03:07:13;;;;;;;;;;;17.70;68.40;;;;;;5027835;27;89371;-52
2022/10/04 03:09:40;;;;;;;;;;;17.80;68.60;;;;;;5024579;27;92036;-52
2022/10/04 03:12:09;;;;;;;;;;;17.70;68.60;;;;;;5024817;27;89537;-52
2022/10/04 03:14:36;;;;;;;;;;;17.70;68.50;;;;;;5017768;27;91601;-52
2022/10/04 03:17:05;;;;;;;;;;;17.70;68.70;;;;;;5030127;27;90434;-47
2022/10/04 03:19:32;;;;;;;;;;;17.80;68.70;;;;;;5020212;27;93056;-48
2022/10/04 03:22:02;;;;;;;;;;;17.80;68.60;;;;;;5020952;27;89829;-54
2022/10/04 03:24:29;;;;;;;;;;;17.70;68.60;;;;;;5025842;27;90344;-51
2022/10/04 03:26:56;;;;;;;;;;;17.70;68.70;;;;;;5030759;27;89894;-53
2022/10/04 03:29:23;;;;;;;;;;;17.70;68.90;;;;;;5030624;27;91427;-50
2022/10/04 03:31:56;;;;;;;;;;;17.60;68.90;;;;;;5015942;27;94109;-51
2022/10/04 03:34:22;;;;;;;;;;;17.60;68.70;;;;;;5024750;27;90049;-54
2022/10/04 03:36:49;;;;;;;;;;;17.60;68.70;;;;;;5028674;27;90016;-54
2022/10/04 03:39:31;;;;;;;;;;;17.60;68.90;;;;;;5022577;27;91351;-52
2022/10/04 03:41:57;;;;;;;;;;;17.60;68.70;;;;;;5023845;27;90341;-52
2022/10/04 03:44:23;;;;;;;;;;;17.60;68.70;;;;;;5038180;27;90043;-53
2022/10/04 03:46:49;;;;;;;;;;;17.60;68.80;;;;;;5023289;27;90087;-54
2022/10/04 03:49:25;;;;;;;;;;;17.60;68.60;;;;;;5025311;27;91046;-51
2022/10/04 03:51:51;;;;;;;;;;;17.60;68.70;;;;;;5036822;27;91323;-51
2022/10/04 03:54:20;;;;;;;;;;;17.60;68.70;;;;;;5011481;27;90639;-50
2022/10/04 03:56:46;;;;;;;;;;;17.60;68.60;;;;;;5025811;27;89533;-50
2022/10/04 03:59:14;;;;;;;;;;;17.60;68.70;;;;;;5022348;27;90035;-53
2022/10/04 04:02:00;;;;;;;;;;;17.60;68.70;;;;;;5015373;27;93126;-51
2022/10/04 04:04:29;;;;;;;;;;;17.60;68.60;;;;;;5012657;27;93134;-51
2022/10/04 04:06:55;;;;;;;;;;;17.60;68.50;;;;;;5009784;27;92277;-49
2022/10/04 04:09:22;;;;;;;;;;;17.50;69.00;;;;;;5019416;27;90965;-51
2022/10/04 04:11:49;;;;;;;;;;;17.50;69.00;;;;;;5024816;27;90451;-55
2022/10/04 04:14:20;;;;;;;;;;;17.60;68.80;;;;;;5028752;27;95250;-53
2022/10/04 04:16:46;;;;;;;;;;;17.60;68.50;;;;;;5018232;27;89992;-51
2022/10/04 04:19:14;;;;;;;;;;;17.50;68.70;;;;;;5028514;27;90361;-50
2022/10/04 04:21:40;;;;;;;;;;;17.50;68.80;;;;;;5035105;27;89000;-51
2022/10/04 04:24:11;;;;;;;;;;;17.60;68.80;;;;;;5032152;27;92153;-52
2022/10/04 04:26:40;;;;;;;;;;;17.60;68.70;;;;;;5023937;27;91078;-51
2022/10/04 04:29:15;;;;;;;;;;;17.50;68.80;;;;;;5029306;27;91063;-49
2022/10/04 04:31:58;;;;;;;;;;;17.50;68.90;;;;;;5026690;27;90883;-50
2022/10/04 04:34:28;;;;;;;;;;;17.50;68.60;;;;;;5034309;27;90162;-50
2022/10/04 04:36:58;;;;;;;;;;;17.50;68.70;;;;;;5034437;27;90292;-49
2022/10/04 04:39:33;;;;;;;;;;;17.50;68.70;;;;;;5033644;27;89981;-49
2022/10/04 04:42:00;;;;;;;;;;;17.50;68.70;;;;;;5034193;27;89933;-52
2022/10/04 04:44:26;;;;;;;;;;;17.50;68.60;;;;;;5033906;27;90637;-52
2022/10/04 04:46:59;;;;;;;;;;;17.50;68.50;;;;;;5037548;27;90690;-50
2022/10/04 04:49:26;;;;;;;;;;;17.60;68.30;;;;;;5028474;27;93554;-51
2022/10/04 04:51:51;;;;;;;;;;;17.60;68.40;;;;;;5016778;27;90182;-52
2022/10/04 04:54:22;;;;;;;;;;;17.60;68.40;;;;;;5007660;27;91996;-50
2022/10/04 04:56:50;;;;;;;;;;;17.50;68.50;;;;;;5020493;27;94815;-51
2022/10/04 04:59:16;;;;;;;;;;;17.50;68.70;;;;;;5031704;27;91242;-49
2022/10/04 05:01:43;;;;;;;;;;;17.50;68.80;;;;;;5020920;27;89935;-52
2022/10/04 05:04:08;;;;;;;;;;;17.50;68.70;;;;;;5026519;27;90388;-51
2022/10/04 05:06:35;;;;;;;;;;;17.50;68.80;;;;;;5019552;27;92942;-53
2022/10/04 05:09:02;;;;;;;;;;;17.50;68.40;;;;;;5026938;27;93935;-52
2022/10/04 05:11:37;;;;;;;;;;;17.50;68.60;;;;;;5025493;27;89532;-55
2022/10/04 05:14:08;;;;;;;;;;;17.50;68.50;;;;;;5016881;27;90292;-47
2022/10/04 05:16:39;;;;;;;;;;;17.50;68.70;;;;;;5021197;27;94645;-51
2022/10/04 05:19:07;;;;;;;;;;;17.50;68.70;;;;;;5037163;27;90477;-47
2022/10/04 05:21:34;;;;;;;;;;;17.50;68.70;;;;;;5026165;27;93043;-51
2022/10/04 05:24:08;;;;;;;;;;;17.50;68.50;;;;;;5026612;27;89812;-56
2022/10/04 05:26:34;;;;;;;;;;;17.50;68.60;;;;;;5039516;27;92617;-53
2022/10/04 05:29:05;;;;;;;;;;;17.40;68.50;;;;;;5029185;27;89953;-53
2022/10/04 05:31:37;;;;;;;;;;;17.40;68.80;;;;;;5035498;27;90537;-49
2022/10/04 05:34:14;;;;;;;;;;;17.40;68.90;;;;;;5029794;27;90869;-52
2022/10/04 05:36:42;;;;;;;;;;;17.40;68.60;;;;;;5029376;27;89654;-48
2022/10/04 05:39:19;;;;;;;;;;;17.50;68.40;;;;;;5028941;27;89956;-52
2022/10/04 05:41:56;;;;;;;;;;;17.40;68.40;;;;;;5017658;27;92753;-51
2022/10/04 05:44:26;;;;;;;;;;;17.40;68.60;;;;;;5025694;27;90927;-51
2022/10/04 05:46:58;;;;;;;;;;;17.30;69.00;;;;;;5020912;27;90197;-51
2022/10/04 05:49:25;;;;;;;;;;;17.30;68.90;;;;;;5021592;27;89614;-49
2022/10/04 05:51:58;;;;;;;;;;;17.30;68.90;;;;;;5022838;27;92303;-50
2022/10/04 05:54:26;;;;;;;;;;;17.30;68.90;;;;;;5026672;27;96113;-55
2022/10/04 05:57:05;;;;;;;;;;;17.30;69.00;;;;;;5034129;27;90748;-52
2022/10/04 05:59:50;;;;;;;;;;;17.30;69.10;;;;;;5026640;27;91874;-47
2022/10/04 06:02:21;;;;;;;;;;;17.20;69.10;;;;;;5029874;27;89431;-48
2022/10/04 06:05:05;;;;;;;;;;;17.20;69.30;;;;;;5030841;27;91654;-52
2022/10/04 06:07:53;;;;;;;;;;;17.20;69.30;;;;;;5027911;27;89817;-47
2022/10/04 06:10:41;;;;;;;;;;;17.20;69.30;;;;;;5026662;27;90980;-48
2022/10/04 06:13:25;;;;;;;;;;;17.10;69.40;;;;;;5037465;27;91318;-53
2022/10/04 06:15:57;;;;;;;;;;;17.20;69.40;;;;;;5029187;27;96537;-51
2022/10/04 06:18:41;;;;;;;;;;;17.20;69.40;;;;;;5028803;27;89579;-50
2022/10/04 06:21:16;;;;;;;;;;;17.10;69.40;;;;;;5029930;27;90289;-49
2022/10/04 06:23:51;;;;;;;;;;;17.10;69.50;;;;;;5039196;27;89662;-47
2022/10/04 06:26:27;;;;;;;;;;;17.10;70.20;;;;;;5018683;27;90110;-53
2022/10/04 06:28:55;;;;;;;;;;;17.20;69.50;;;;;;5031389;27;90605;-50
2022/10/04 06:31:23;;;;;;;;;;;17.10;69.30;;;;;;5027677;27;90082;-51
2022/10/04 06:33:54;;;;;;;;;;;17.10;70.10;;;;;;5044427;27;89508;-53
2022/10/04 06:36:28;;;;;;;;;;;17.20;69.30;;;;;;5031949;27;91203;-51
2022/10/04 06:39:01;;;;;;;;;;;17.20;69.30;;;;;;5033255;27;91006;-49
2022/10/04 06:41:41;;;;;;;;;;;17.20;69.30;;;;;;5038961;27;91855;-52
2022/10/04 06:44:12;;;;;;;;;;;17.10;69.30;;;;;;5025659;27;90267;-50
2022/10/04 06:46:56;;;;;;;;;;;17.20;69.20;;;;;;5034389;27;91548;-50
2022/10/04 06:49:21;;;;;;;;;;;17.20;69.30;;;;;;5025301;27;89739;-48
2022/10/04 06:52:10;;;;;;;;;;;17.20;69.20;;;;;;5030711;27;90919;-49
2022/10/04 06:54:39;;;;;;;;;;;17.20;69.30;;;;;;5034480;27;89236;-51
2022/10/04 06:57:23;;;;;;;;;;;17.20;69.30;;;;;;5031488;27;90255;-49
2022/10/04 07:00:01;;;;;;;;;;;17.20;69.10;;;;;;5030567;27;89945;-51
2022/10/04 07:02:38;;;;;;;;;;;17.20;69.10;;;;;;5032796;27;92546;-51
2022/10/04 07:05:12;;;;;;;;;;;17.20;69.00;;;;;;5027590;27;90856;-48
2022/10/04 07:07:40;;;;;;;;;;;17.20;69.10;;;;;;5030797;27;89966;-48
2022/10/04 07:10:12;;;;;;;;;;;17.20;69.00;;;;;;5037682;27;90076;-52
2022/10/04 07:12:42;;;;;;;;;;;17.20;69.00;;;;;;5035032;27;90080;-48
2022/10/04 07:15:18;;;;;;;;;;;17.20;69.00;;;;;;5035952;27;90144;-50
2022/10/04 07:17:45;;;;;;;;;;;17.20;68.90;;;;;;5029247;27;90081;-50
2022/10/04 07:20:25;;;;;;;;;;;17.20;68.90;;;;;;5029749;27;90277;-53
2022/10/04 07:22:59;;;;;;;;;;;17.20;69.10;;;;;;5027244;27;89636;-53
2022/10/04 07:25:27;;;;;;;;;;;17.30;68.80;;;;;;5031280;27;89912;-51
2022/10/04 07:31:08;;;;;;;;;;;17.20;68.90;;;;;;5033817;27;90074;-50
2022/10/04 07:33:45;;;;;;;;;;;17.30;68.90;;;;;;5027770;27;89872;-52
2022/10/04 07:36:12;;;;;;;;;;;17.30;68.80;;;;;;5029237;27;95474;-48
2022/10/04 07:38:43;;;;;;;;;;;17.40;68.70;;;;;;5038792;27;90319;-51
2022/10/04 07:41:11;;;;;;;;;;;17.40;68.50;;;;;;5029872;27;89917;-52
2022/10/04 07:43:46;;;;;;;;;;;17.40;68.50;;;;;;5027738;27;90022;-51
2022/10/04 07:46:14;;;;;;;;;;;17.40;68.50;;;;;;5034053;27;89334;-53
2022/10/04 07:48:40;;;;;;;;;;;17.40;68.40;;;;;;5028955;27;91184;-49
2022/10/04 07:51:11;;;;;;;;;;;17.40;68.50;;;;;;5037344;27;89619;-51
2022/10/04 07:53:40;;;;;;;;;;;17.40;68.40;;;;;;5030984;27;92542;-51
2022/10/04 07:56:17;;;;;;;;;;;17.40;68.60;;;;;;5028822;27;89921;-51
2022/10/04 07:58:50;;;;;;;;;;;17.50;68.40;;;;;;5019308;27;92167;-51
2022/10/04 08:01:16;;;;;;;;;;;17.50;68.10;;;;;;5043134;27;89722;-52
2022/10/04 08:03:58;;;;;;;;;;;17.50;68.20;;;;;;5030808;27;89875;-48
2022/10/04 08:06:38;;;;;;;;;;;17.50;68.30;;;;;;5031637;27;90065;-48
2022/10/04 08:09:22;;;;;;;;;;;17.50;68.20;;;;;;5036435;27;90157;-50
2022/10/04 08:12:07;;;;;;;;;;;17.50;68.10;;;;;;5034987;27;90079;-48
2022/10/04 08:14:39;;;;;;;;;;;17.50;68.10;;;;;;5033935;27;90863;-48
2022/10/04 08:17:21;;;;;;;;;;;17.60;67.80;;;;;;5031240;27;90059;-48
2022/10/04 08:20:06;;;;;;;;;;;17.60;68.00;;;;;;5028427;27;91183;-53
2022/10/04 08:22:40;;;;;;;;;;;17.60;67.90;;;;;;5034935;27;91186;-47
2022/10/04 08:25:08;;;;;;;;;;;17.60;67.80;;;;;;5040961;27;89892;-49
2022/10/04 08:27:36;;;;;;;;;;;17.70;67.60;;;;;;5042772;27;90077;-52
2022/10/04 08:30:05;;;;;;;;;;;17.70;67.50;;;;;;5037684;27;89461;-51
2022/10/04 08:32:50;;;;;;;;;;;17.80;67.30;;;;;;5035682;27;91393;-53
2022/10/04 08:35:22;;;;;;;;;;;17.90;67.00;;;;;;5032910;27;93849;-53
2022/10/04 08:37:59;;;;;;;;;;;17.90;66.70;;;;;;5035995;27;89580;-52
2022/10/04 08:40:25;;;;;;;;;;;17.80;66.80;;;;;;5031210;27;89722;-53
2022/10/04 08:42:53;;;;;;;;;;;17.90;66.80;;;;;;5029841;27;93491;-48
2022/10/04 08:45:37;;;;;;;;;;;17.90;66.70;;;;;;5031990;27;90878;-52
2022/10/04 08:48:18;;;;;;;;;;;18.00;66.70;;;;;;5030033;27;93999;-49
2022/10/04 08:50:43;;;;;;;;;;;18.00;66.50;;;;;;5037657;27;90029;-49
2022/10/04 08:53:15;;;;;;;;;;;18.00;66.30;;;;;;5031418;27;90095;-51
2022/10/04 08:55:40;;;;;;;;;;;18.10;66.00;;;;;;5023297;27;90757;-49
2022/10/04 08:58:14;;;;;;;;;;;18.20;66.00;;;;;;5028336;27;89493;-52
2022/10/04 09:00:44;;;;;;;;;;;18.20;65.60;;;;;;5033456;27;90717;-52
2022/10/04 09:03:25;;;;;;;;;;;18.20;65.60;;;;;;5036459;27;90144;-53
2022/10/04 09:06:09;;;;;;;;;;;18.30;65.60;;;;;;5035761;27;89922;-47
2022/10/04 09:08:53;;;;;;;;;;;18.30;65.50;;;;;;5032247;27;89590;-52
2022/10/04 09:11:22;;;;;;;;;;;18.20;65.40;;;;;;5034394;27;91185;-51
2022/10/04 09:13:47;;;;;;;;;;;18.30;65.40;;;;;;5037748;27;89761;-50
2022/10/04 09:16:13;;;;;;;;;;;18.30;65.50;;;;;;5028668;27;89956;-52
2022/10/04 09:18:47;;;;;;;;;;;18.30;65.20;;;;;;5038092;27;93585;-52
2022/10/04 09:21:25;;;;;;;;;;;18.30;65.40;;;;;;5049874;27;90014;-48
2022/10/04 09:23:59;;;;;;;;;;;18.30;65.40;;;;;;5033203;27;89662;-51
2022/10/04 09:26:45;;;;;;;;;;;18.30;65.40;;;;;;5037575;27;90123;-51
2022/10/04 09:29:11;;;;;;;;;;;18.40;65.30;;;;;;5024015;27;88793;-49
2022/10/04 09:31:55;;;;;;;;;;;18.40;65.30;;;;;;5029304;27;99747;-46
2022/10/04 09:34:40;;;;;;;;;;;18.30;65.30;;;;;;5027523;27;90605;-49
2022/10/04 09:37:24;;;;;;;;;;;18.40;65.30;;;;;;5028475;27;90868;-48
2022/10/04 09:39:59;;;;;;;;;;;18.40;65.20;;;;;;5033458;27;90286;-48
2022/10/04 09:42:25;;;;;;;;;;;18.40;65.00;;;;;;5025735;27;90456;-49
2022/10/04 09:45:09;;;;;;;;;;;18.40;65.10;;;;;;5031294;27;89987;-50
2022/10/04 09:47:39;;;;;;;;;;;18.50;65.20;;;;;;5020072;27;90175;-49
2022/10/04 09:50:25;;;;;;;;;;;18.50;65.00;;;;;;5035857;27;89567;-50
2022/10/04 09:53:02;;;;;;;;;;;18.50;64.90;;;;;;5028858;27;89636;-50
2022/10/04 09:55:47;;;;;;;;;;;18.50;65.00;;;;;;5024376;27;88873;-46
2022/10/04 09:58:35;;;;;;;;;;;18.50;64.90;;;;;;5033211;27;89600;-49
2022/10/04 10:01:00;;;;;;;;;;;18.60;64.70;;;;;;5035120;27;91628;-53
2022/10/04 10:03:32;;;;;;;;;;;18.60;64.70;;;;;;5035650;27;91118;-52
2022/10/04 10:06:18;;;;;;;;;;;18.60;64.80;;;;;;5038022;27;91407;-49
2022/10/04 10:09:02;;;;;;;;;;;18.60;64.80;;;;;;5015681;27;91714;-47
2022/10/04 10:14:20;;;;;;;;;;;18.70;64.60;;;;;;5031972;27;90078;-49
2022/10/04 10:16:59;;;;;;;;;;;18.70;64.60;;;;;;5031873;27;89523;-52
2022/10/04 10:19:48;;;;;;;;;;;18.70;64.60;;;;;;5033679;27;89852;-50
2022/10/04 10:22:27;;;;;;;;;;;18.70;64.50;;;;;;5018856;27;88808;-50
2022/10/04 10:25:02;;;;;;;;;;;18.70;64.40;;;;;;5036743;27;89500;-49
2022/10/04 10:27:51;;;;;;;;;;;18.70;64.60;;;;;;5029747;27;89384;-51
2022/10/04 10:30:22;;;;;;;;;;;18.70;64.60;;;;;;5034936;27;92646;-54
2022/10/04 10:33:07;;;;;;;;;;;18.70;64.60;;;;;;5037140;27;89740;-51
2022/10/04 10:35:41;;;;;;;;;;;18.70;64.50;;;;;;5032622;27;93941;-51
2022/10/04 10:38:07;;;;;;;;;;;18.80;64.50;;;;;;5038095;27;90409;-51
2022/10/04 10:40:39;;;;;;;;;;;18.70;64.60;;;;;;5035481;27;89563;-49
2022/10/04 10:43:24;;;;;;;;;;;18.70;64.50;;;;;;5032498;27;89781;-47
2022/10/04 10:45:55;;;;;;;;;;;18.80;64.60;;;;;;5031978;27;89565;-48
2022/10/04 10:48:20;;;;;;;;;;;18.80;64.60;;;;;;5030883;27;92471;-47
2022/10/04 10:50:58;;;;;;;;;;;18.80;64.60;;;;;;5032274;27;89634;-49
2022/10/04 10:53:44;;;;;;;;;;;18.80;64.80;;;;;;5024712;27;90135;-46
2022/10/04 10:56:29;;;;;;;;;;;18.80;64.70;;;;;;5040704;27;91204;-46
2022/10/04 10:59:14;;;;;;;;;;;18.80;64.60;;;;;;5025660;27;90856;-47
2022/10/04 11:01:59;;;;;;;;;;;18.80;64.60;;;;;;5027472;27;89975;-48
2022/10/04 11:04:34;;;;;;;;;;;18.80;64.60;;;;;;5023869;27;89679;-46
2022/10/04 11:07:16;;;;;;;;;;;18.90;64.60;;;;;;5026174;27;90259;-53
2022/10/04 11:10:18;;;;;;;;;;;18.90;64.60;;;;;;5035628;27;89858;-50
2022/10/04 11:13:25;;;;;;;;;;;18.90;64.60;;;;;;4951310;28;90024;-51
2022/10/04 11:16:09;;;;;;;;;;;18.90;64.60;;;;;;4957623;28;89432;-51
2022/10/04 11:18:57;;;;;;;;;;;18.90;64.60;;;;;;5016712;27;90090;-47
2022/10/04 11:21:33;;;;;;;;;;;18.90;64.60;;;;;;5029390;27;90215;-51
2022/10/04 11:24:17;;;;;;;;;;;18.90;64.60;;;;;;5038048;27;93579;-51
2022/10/04 11:26:59;;;;;;;;;;;19.00;64.60;;;;;;5031333;27;89966;-47
2022/10/04 11:29:24;;;;;;;;;;;19.00;64.60;;;;;;5035562;27;90585;-50
2022/10/04 11:31:53;;;;;;;;;;;19.00;64.50;;;;;;5034874;27;89929;-51
2022/10/04 11:34:25;;;;;;;;;;;19.00;64.40;;;;;;5033095;27;90136;-47
2022/10/04 11:37:09;;;;;;;;;;;19.00;64.30;;;;;;5042408;27;89936;-52
2022/10/04 11:39:53;;;;;;;;;;;19.10;64.50;;;;;;5030147;27;90064;-50
2022/10/04 11:42:25;;;;;;;;;;;19.00;64.40;;;;;;5035746;27;88930;-47
2022/10/04 11:44:58;;;;;;;;;;;19.10;64.50;;;;;;5036481;27;90011;-47
2022/10/04 11:47:50;;;;;;;;;;;19.00;64.40;;;;;;5036583;27;89583;-52
2022/10/04 11:50:38;;;;;;;;;;;19.10;64.70;;;;;;5012221;27;91066;-50
2022/10/04 11:53:24;;;;;;;;;;;19.10;64.50;;;;;;5039167;27;91092;-51
2022/10/04 11:55:53;;;;;;;;;;;19.10;64.50;;;;;;5029498;27;89736;-48
2022/10/04 11:58:27;;;;;;;;;;;19.10;64.50;;;;;;5031211;27;89894;-50
2022/10/04 12:01:07;;;;;;;;;;;19.10;64.50;;;;;;5036301;27;89890;-52
2022/10/04 12:03:52;;;;;;;;;;;19.10;64.50;;;;;;5029778;27;91715;-51
2022/10/04 12:06:25;;;;;;;;;;;19.10;64.40;;;;;;5033682;27;90218;-48
2022/10/04 12:08:50;;;;;;;;;;;19.20;64.40;;;;;;5028221;27;89348;-48
2022/10/04 12:11:16;;;;;;;;;;;19.20;64.50;;;;;;5040590;27;89872;-50
2022/10/04 12:13:49;;;;;;;;;;;19.20;64.50;;;;;;5030874;27;90906;-50
2022/10/04 12:16:14;;;;;;;;;;;19.20;64.50;;;;;;5037524;27;90899;-50
2022/10/04 12:19:06;;;;;;;;;;;19.20;64.50;;;;;;5028132;27;89847;-54
2022/10/04 12:21:33;;;;;;;;;;;19.20;64.50;;;;;;5032225;27;89980;-50
2022/10/04 12:24:22;;;;;;;;;;;19.20;64.50;;;;;;5038632;27;89963;-50
2022/10/04 12:27:11;;;;;;;;;;;19.20;64.50;;;;;;5041056;27;90548;-50
2022/10/04 12:29:55;;;;;;;;;;;19.30;64.50;;;;;;5039146;27;89931;-50
2022/10/04 12:32:39;;;;;;;;;;;19.30;64.50;;;;;;5035120;27;92164;-47
2022/10/04 12:35:10;;;;;;;;;;;19.30;64.60;;;;;;5027501;27;88797;-47
2022/10/04 12:37:39;;;;;;;;;;;19.20;64.60;;;;;;5036936;27;89944;-48
2022/10/04 12:40:23;;;;;;;;;;;19.30;64.70;;;;;;5028258;27;90265;-49
2022/10/04 12:42:57;;;;;;;;;;;19.30;64.70;;;;;;5031305;27;91596;-49
2022/10/04 12:45:31;;;;;;;;;;;19.30;64.70;;;;;;5028411;27;90047;-54
2022/10/04 12:48:32;;;;;;;;;;;19.30;64.80;;;;;;5037651;27;90015;-50
2022/10/04 12:51:06;;;;;;;;;;;19.30;64.80;;;;;;4964269;28;90102;-48
2022/10/04 12:53:37;;;;;;;;;;;19.30;64.80;;;;;;5020774;27;89751;-50
2022/10/04 12:56:05;;;;;;;;;;;19.30;64.70;;;;;;5024133;27;89722;-49
2022/10/04 12:58:31;;;;;;;;;;;19.30;64.70;;;;;;5025311;27;92197;-52
2022/10/04 13:01:13;;;;;;;;;;;19.30;64.80;;;;;;5038311;27;90115;-50
2022/10/04 13:03:42;;;;;;;;;;;19.30;64.80;;;;;;5046534;27;90770;-53
2022/10/04 13:06:20;;;;;;;;;;;19.40;64.80;;;;;;5038449;27;89797;-53
2022/10/04 13:08:56;;;;;;;;;;;19.40;64.80;;;;;;5028184;27;90782;-51
2022/10/04 13:11:30;;;;;;;;;;;19.40;64.80;;;;;;5024667;27;90794;-51
2022/10/04 13:13:59;;;;;;;;;;;19.40;64.80;;;;;;5032751;27;90846;-53
2022/10/04 13:16:35;;;;;;;;;;;19.40;64.70;;;;;;5018949;27;93679;-51
2022/10/04 13:19:09;;;;;;;;;;;19.40;64.70;;;;;;5048833;27;89873;-51
2022/10/04 13:21:35;;;;;;;;;;;19.50;64.70;;;;;;5036832;27;89864;-49
2022/10/04 13:24:09;;;;;;;;;;;19.50;64.60;;;;;;5029228;27;90384;-52
2022/10/04 13:26:41;;;;;;;;;;;19.50;64.70;;;;;;5033652;27;89029;-53
2022/10/04 13:29:19;;;;;;;;;;;19.50;64.60;;;;;;5033888;27;90022;-48
2022/10/04 13:31:48;;;;;;;;;;;19.50;64.60;;;;;;5037614;27;90000;-52
2022/10/04 13:34:19;;;;;;;;;;;19.50;64.60;;;;;;5036850;27;95275;-51
2022/10/04 13:36:44;;;;;;;;;;;19.50;64.50;;;;;;5035833;27;91295;-52
2022/10/04 13:39:28;;;;;;;;;;;19.60;64.60;;;;;;5027885;27;95878;-50
2022/10/04 13:41:59;;;;;;;;;;;19.60;64.50;;;;;;5021758;27;90035;-51
2022/10/04 13:44:29;;;;;;;;;;;19.60;64.50;;;;;;5037958;27;90035;-51
2022/10/04 13:46:57;;;;;;;;;;;19.60;64.50;;;;;;5034936;27;94402;-47
2022/10/04 13:49:41;;;;;;;;;;;19.60;64.50;;;;;;5023915;27;89778;-51
2022/10/04 13:58:10;;;;;;;;;;;19.60;64.50;;;;;;5021482;27;89723;-50
2022/10/04 14:00:50;;;;;;;;;;;19.60;64.50;;;;;;4996880;27;90626;-49
2022/10/04 14:03:24;;;;;;;;;;;19.70;64.50;;;;;;5034789;27;90040;-52
2022/10/04 14:06:05;;;;;;;;;;;19.70;64.50;;;;;;5033233;27;90241;-52
2022/10/04 14:08:49;;;;;;;;;;;19.70;64.50;;;;;;5027644;27;93438;-51
2022/10/04 14:11:18;;;;;;;;;;;19.70;64.50;;;;;;5025737;27;89769;-52
2022/10/04 14:14:09;;;;;;;;;;;19.70;64.40;;;;;;5039506;27;89981;-53
2022/10/04 14:16:37;;;;;;;;;;;19.70;64.40;;;;;;5036655;27;91980;-53
2022/10/04 14:19:21;;;;;;;;;;;19.70;64.40;;;;;;5033758;27;90156;-51
2022/10/04 14:22:05;;;;;;;;;;;19.70;64.40;;;;;;5031070;27;92671;-51
2022/10/04 14:25:04;;;;;;;;;;;19.70;64.30;;;;;;5054973;27;88793;-48
2022/10/04 14:27:30;;;;;;;;;;;19.70;64.30;;;;;;5050840;27;83030;-48
2022/10/04 14:30:19;;;;;;;;;;;19.70;64.30;;;;;;5053562;27;83483;-48
2022/10/04 14:33:04;;;;;;;;;;;19.80;64.40;;;;;;5033497;27;87466;-48
2022/10/04 14:35:33;;;;;;;;;;;19.80;64.30;;;;;;5047270;27;87133;-46
2022/10/04 14:38:09;;;;;;;;;;;19.80;64.30;;;;;;5046400;27;82989;-50
2022/10/04 14:40:58;;;;;;;;;;;19.80;64.30;;;;;;5053141;27;83969;-51
2022/10/04 14:43:42;;;;;;;;;;;19.80;64.30;;;;;;5049330;27;84248;-46
2022/10/04 14:46:37;;;;;;;;;;;19.80;64.30;;;;;;5051983;27;82819;-49
2022/10/04 14:49:08;;;;;;;;;;;19.80;64.30;;;;;;5010082;27;83190;-49
2022/10/04 14:51:48;;;;;;;;;;;19.80;64.30;;;;;;5042350;27;82785;-47
2022/10/04 14:54:14;;;;;;;;;;;19.80;64.30;;;;;;5035957;27;84066;-48
2022/10/04 14:56:59;;;;;;;;;;;19.80;64.30;;;;;;5046610;27;83778;-47
2022/10/04 14:59:27;;;;;;;;;;;19.80;64.30;;;;;;5051155;27;83852;-50
2022/10/04 15:01:59;;;;;;;;;;;19.80;64.40;;;;;;5037702;27;83314;-48
2022/10/04 15:04:31;;;;;;;;;;;19.90;64.40;;;;;;5045735;27;84775;-48
2022/10/04 15:06:59;;;;;;;;;;;19.90;64.30;;;;;;5051658;27;82770;-47
2022/10/04 15:09:49;;;;;;;;;;;19.90;65.00;;;;;;5047461;27;84806;-49